createdAt,value
2022-08-07T00:02:36.132Z,42.15
2022-08-07T00:04:09.643Z,42.67
2022-08-07T00:06:51.228Z,42.57
2022-08-07T00:09:22.768Z,42.74
2022-08-07T00:11:55.982Z,42.93
2022-08-07T00:14:31.027Z,42.80
2022-08-07T00:17:01.966Z,43.14
2022-08-07T00:20:00.012Z,42.92
2022-08-07T00:22:24.481Z,42.94
2022-08-07T00:25:05.758Z,43.17
2022-08-07T00:27:53.512Z,43.18
2022-08-07T00:30:27.670Z,43.35
2022-08-07T00:32:58.268Z,43.78
2022-08-07T00:35:30.533Z,43.42
2022-08-07T00:37:59.605Z,43.84
2022-08-07T00:40:40.000Z,43.68
2022-08-07T00:44:01.374Z,43.87
2022-08-07T00:45:59.852Z,43.90
2022-08-07T00:48:31.975Z,43.98
2022-08-07T00:51:03.641Z,44.38
2022-08-07T00:53:38.903Z,44.42
2022-08-07T00:56:19.434Z,44.34
2022-08-07T00:58:49.677Z,44.32
2022-08-07T01:01:20.339Z,44.61
2022-08-07T01:03:56.617Z,44.67
2022-08-07T01:06:31.747Z,44.87
2022-08-07T01:09:02.861Z,44.92
2022-08-07T01:12:24.025Z,44.99
2022-08-07T01:14:28.882Z,44.95
2022-08-07T01:17:00.109Z,45.02
2022-08-07T01:19:33.415Z,45.21
2022-08-07T01:22:08.810Z,45.05
2022-08-07T01:24:45.815Z,45.17
2022-08-07T01:27:17.716Z,45.55
2022-08-07T01:29:50.615Z,45.22
2022-08-07T01:32:22.429Z,45.54
2022-08-07T01:34:53.297Z,45.31
2022-08-07T01:37:23.474Z,45.53
2022-08-07T01:39:59.077Z,45.85
2022-08-07T01:42:37.935Z,45.75
2022-08-07T01:45:17.953Z,46.02
2022-08-07T01:48:20.459Z,46.16
2022-08-07T01:50:43.033Z,46.10
2022-08-07T01:53:20.813Z,46.11
2022-08-07T01:56:02.584Z,46.19
2022-08-07T01:58:41.077Z,46.10
2022-08-07T02:01:58.758Z,46.41
2022-08-07T02:04:14.945Z,46.42
2022-08-07T02:06:48.594Z,46.74
2022-08-07T02:09:33.930Z,46.83
2022-08-07T02:12:18.142Z,46.95
2022-08-07T02:14:57.944Z,46.89
2022-08-07T02:17:57.865Z,47.18
2022-08-07T02:20:31.327Z,47.18
2022-08-07T02:23:06.057Z,47.23
2022-08-07T02:26:31.857Z,47.33
2022-08-07T02:28:32.237Z,47.41
2022-08-07T02:31:18.867Z,47.54
2022-08-07T02:34:03.058Z,47.56
2022-08-07T02:36:39.592Z,47.79
2022-08-07T02:39:17.030Z,47.96
2022-08-07T02:42:10.303Z,47.81
2022-08-07T02:44:49.801Z,47.89
2022-08-07T02:47:23.937Z,47.99
2022-08-07T02:50:06.391Z,48.04
2022-08-07T02:52:44.217Z,48.13
2022-08-07T02:55:28.549Z,48.32
2022-08-07T02:58:15.520Z,48.32
2022-08-07T03:00:46.730Z,48.45
2022-08-07T03:03:21.185Z,48.40
2022-08-07T03:05:55.551Z,48.55
2022-08-07T03:08:26.990Z,48.73
2022-08-07T03:11:02.452Z,48.74
2022-08-07T03:13:49.799Z,48.97
2022-08-07T03:16:23.012Z,49.03
2022-08-07T03:18:58.043Z,49.24
2022-08-07T03:21:27.778Z,49.31
2022-08-07T03:24:19.928Z,49.55
2022-08-07T03:26:59.070Z,49.48
2022-08-07T03:29:38.561Z,49.70
2022-08-07T03:32:15.855Z,49.66
2022-08-07T03:35:17.010Z,49.80
2022-08-07T03:37:46.257Z,50.00
2022-08-07T03:40:30.870Z,49.96
2022-08-07T03:43:02.310Z,50.09
2022-08-07T03:45:39.713Z,50.10
2022-08-07T03:48:14.516Z,50.18
2022-08-07T03:50:56.156Z,50.16
2022-08-07T03:54:01.893Z,50.21
2022-08-07T03:56:33.289Z,50.35
2022-08-07T03:59:09.823Z,50.39
2022-08-07T04:01:46.306Z,50.38
2022-08-07T04:04:19.318Z,50.55
2022-08-07T04:06:54.084Z,50.68
2022-08-07T04:09:25.173Z,50.73
2022-08-07T04:12:26.748Z,50.77
2022-08-07T04:14:58.185Z,50.74
2022-08-07T04:18:31.166Z,50.81
2022-08-07T04:20:20.818Z,50.80
2022-08-07T04:22:53.410Z,50.86
2022-08-07T04:25:24.688Z,50.90
2022-08-07T04:28:00.252Z,50.89
2022-08-07T04:30:39.410Z,51.03
2022-08-07T04:33:28.284Z,50.89
2022-08-07T04:35:57.934Z,51.02
2022-08-07T04:38:29.756Z,51.09
2022-08-07T04:40:59.696Z,50.97
2022-08-07T04:44:12.241Z,50.90
2022-08-07T04:46:59.617Z,51.00
2022-08-07T04:49:58.066Z,50.98
2022-08-07T04:52:46.776Z,50.85
2022-08-07T04:58:12.004Z,50.83
2022-08-07T04:58:48.851Z,50.86
2022-08-07T05:01:36.697Z,50.89
2022-08-07T05:04:17.429Z,51.08
2022-08-07T05:06:59.460Z,50.87
2022-08-07T05:09:45.455Z,50.87
2022-08-07T05:12:27.334Z,50.89
2022-08-07T05:15:23.255Z,50.70
2022-08-07T05:18:08.492Z,50.78
2022-08-07T05:20:44.764Z,50.73
2022-08-07T05:23:29.022Z,50.66
2022-08-07T05:26:13.050Z,50.72
2022-08-07T05:28:50.392Z,50.60
2022-08-07T05:31:34.614Z,50.63
2022-08-07T05:34:12.198Z,50.62
2022-08-07T05:36:49.108Z,50.73
2022-08-07T05:40:17.085Z,50.51
2022-08-07T05:42:34.315Z,50.55
2022-08-07T05:45:26.243Z,50.66
2022-08-07T05:48:03.103Z,50.40
2022-08-07T05:50:45.286Z,50.43
2022-08-07T05:54:12.900Z,50.23
2022-08-07T05:56:12.527Z,50.27
2022-08-07T05:58:52.467Z,50.32
2022-08-07T06:01:27.330Z,50.13
2022-08-07T06:04:06.911Z,50.05
2022-08-07T06:06:46.228Z,49.96
2022-08-07T06:09:20.077Z,49.68
2022-08-07T06:11:51.852Z,49.75
2022-08-07T06:14:28.733Z,49.60
2022-08-07T06:17:07.013Z,49.64
2022-08-07T06:19:49.954Z,49.53
2022-08-07T06:22:38.345Z,49.44
2022-08-07T06:25:28.020Z,49.25
2022-08-07T06:28:05.823Z,49.25
2022-08-07T06:30:37.439Z,49.26
2022-08-07T06:33:22.538Z,48.80
2022-08-07T06:36:12.454Z,49.07
2022-08-07T06:38:51.620Z,48.97
2022-08-07T06:42:01.998Z,48.81
2022-08-07T06:44:51.346Z,48.55
2022-08-07T06:47:21.553Z,48.26
2022-08-07T06:49:58.463Z,48.27
2022-08-07T06:52:36.508Z,48.43
2022-08-07T06:55:33.156Z,48.41
2022-08-07T06:58:11.690Z,48.10
2022-08-07T07:00:53.033Z,48.00
2022-08-07T07:03:39.551Z,48.16
2022-08-07T07:06:10.972Z,47.81
2022-08-07T07:08:46.619Z,47.98
2022-08-07T07:12:08.579Z,47.66
2022-08-07T07:14:05.144Z,47.71
2022-08-07T07:16:49.615Z,47.34
2022-08-07T07:19:55.240Z,47.17
2022-08-07T07:22:36.161Z,46.89
2022-08-07T07:26:31.716Z,46.98
2022-08-07T07:28:07.510Z,46.45
2022-08-07T07:31:07.162Z,46.44
2022-08-07T07:33:39.292Z,45.97
2022-08-07T07:36:12.733Z,45.41
2022-08-07T07:38:46.235Z,44.84
2022-08-07T07:41:20.722Z,44.25
2022-08-07T07:44:16.891Z,43.60
2022-08-07T07:46:54.684Z,43.17
2022-08-07T07:50:35.566Z,42.56
2022-08-07T07:52:21.730Z,42.35
2022-08-07T07:54:52.390Z,41.87
2022-08-07T07:57:29.056Z,41.54
2022-08-07T08:00:29.210Z,40.39
2022-08-07T08:03:08.300Z,40.45
2022-08-07T08:05:55.247Z,39.93
2022-08-07T08:08:34.281Z,39.42
2022-08-07T08:11:08.466Z,38.81
2022-08-07T08:13:53.424Z,38.27
2022-08-07T08:16:30.947Z,38.53
2022-08-07T08:19:17.769Z,37.71
2022-08-07T08:22:10.863Z,37.33
2022-08-07T08:25:09.434Z,37.00
2022-08-07T08:27:56.770Z,36.73
2022-08-07T08:30:28.587Z,35.94
2022-08-07T08:33:01.458Z,35.68
2022-08-07T08:35:39.371Z,35.20
2022-08-07T08:38:20.202Z,34.83
2022-08-07T08:40:57.299Z,34.65
2022-08-07T08:43:42.231Z,34.27
2022-08-07T08:46:20.386Z,34.01
2022-08-07T08:49:00.810Z,33.74
2022-08-07T08:52:12.498Z,33.32
2022-08-07T08:54:29.680Z,33.04
2022-08-07T08:57:03.112Z,32.70
2022-08-07T08:59:48.164Z,32.45
2022-08-07T09:02:36.617Z,32.14
2022-08-07T09:05:36.942Z,32.21
2022-08-07T09:08:31.421Z,31.52
2022-08-07T09:11:11.600Z,31.65
2022-08-07T09:13:57.241Z,31.03
2022-08-07T09:16:42.677Z,30.70
2022-08-07T09:19:53.622Z,30.82
2022-08-07T09:24:31.525Z,30.47
2022-08-07T09:25:20.133Z,29.97
2022-08-07T09:28:02.983Z,30.08
2022-08-07T09:30:49.697Z,29.62
2022-08-07T09:33:53.132Z,29.30
2022-08-07T09:36:36.934Z,28.74
2022-08-07T09:39:55.560Z,28.66
2022-08-07T09:42:33.237Z,28.50
2022-08-07T09:47:52.125Z,28.43
2022-08-07T09:48:21.735Z,28.00
2022-08-07T09:52:16.728Z,27.61
2022-08-07T09:54:08.236Z,27.24
2022-08-07T09:57:36.546Z,27.27
2022-08-07T10:00:14.808Z,26.97
2022-08-07T10:04:05.164Z,27.07
2022-08-07T10:06:56.970Z,26.72
2022-08-07T10:10:00.587Z,26.07
2022-08-07T10:12:53.638Z,26.09
2022-08-07T10:16:03.041Z,25.76
2022-08-07T10:19:11.041Z,25.77
2022-08-07T10:22:15.909Z,25.56
2022-08-07T10:25:08.794Z,25.42
2022-08-07T10:28:15.387Z,25.41
2022-08-07T10:31:06.114Z,25.11
2022-08-07T10:34:05.645Z,24.90
2022-08-07T10:37:03.778Z,24.78
2022-08-07T10:39:57.598Z,25.04
2022-08-07T10:42:43.930Z,24.76
2022-08-07T10:45:45.155Z,24.76
2022-08-07T10:48:46.501Z,24.46
2022-08-07T10:51:39.418Z,23.42
2022-08-07T10:54:22.473Z,23.08
2022-08-07T10:57:04.551Z,23.15
2022-08-07T10:59:52.025Z,23.20
2022-08-07T11:02:34.046Z,22.96
2022-08-07T11:05:48.743Z,22.85
2022-08-07T11:08:33.429Z,22.36
2022-08-07T11:11:09.003Z,22.34
2022-08-07T11:14:46.242Z,21.94
2022-08-07T11:16:39.122Z,21.75
2022-08-07T11:19:21.701Z,21.76
2022-08-07T11:22:19.488Z,21.53
2022-08-07T11:25:16.790Z,21.90
2022-08-07T11:28:01.608Z,21.50
2022-08-07T11:30:42.155Z,21.36
2022-08-07T11:33:53.614Z,21.09
2022-08-07T11:36:34.763Z,21.06
2022-08-07T11:39:19.970Z,20.81
2022-08-07T11:42:02.807Z,20.89
2022-08-07T11:44:52.570Z,20.28
2022-08-07T11:47:58.797Z,20.45
2022-08-07T11:50:57.231Z,20.15
2022-08-07T11:53:43.412Z,20.45
2022-08-07T11:56:53.123Z,20.27
2022-08-07T12:00:11.876Z,20.33
2022-08-07T12:03:45.265Z,20.59
2022-08-07T12:06:37.773Z,19.95
2022-08-07T12:09:23.776Z,20.12
2022-08-07T12:12:09.348Z,20.24
2022-08-07T12:14:53.796Z,20.15
2022-08-07T12:17:40.560Z,19.86
2022-08-07T12:20:49.216Z,19.71
2022-08-07T12:24:07.298Z,20.17
2022-08-07T12:26:49.008Z,20.10
2022-08-07T12:29:37.987Z,19.81
2022-08-07T12:32:18.534Z,19.25
2022-08-07T12:34:49.646Z,19.31
2022-08-07T12:37:27.746Z,18.97
2022-08-07T12:40:36.168Z,18.66
2022-08-07T12:43:09.853Z,18.64
2022-08-07T12:45:52.726Z,18.77
2022-08-07T12:48:41.411Z,18.97
2022-08-07T12:51:46.614Z,18.34
2022-08-07T12:54:38.741Z,19.23
2022-08-07T12:57:09.558Z,18.93
2022-08-07T12:59:54.312Z,18.46
2022-08-07T13:02:57.404Z,18.43
2022-08-07T13:06:05.054Z,18.27
2022-08-07T13:08:50.661Z,17.98
2022-08-07T13:12:01.908Z,17.96
2022-08-07T13:14:46.873Z,17.73
2022-08-07T13:17:42.370Z,17.63
2022-08-07T13:20:29.053Z,17.54
2022-08-07T13:24:02.145Z,17.27
2022-08-07T13:26:05.155Z,17.49
2022-08-07T13:28:41.053Z,17.23
2022-08-07T13:31:20.234Z,16.95
2022-08-07T13:34:33.503Z,16.91
2022-08-07T13:36:58.043Z,17.07
2022-08-07T13:40:33.181Z,16.86
2022-08-07T13:42:26.848Z,16.84
2022-08-07T13:45:20.891Z,16.81
2022-08-07T13:48:06.201Z,17.01
2022-08-07T13:50:44.831Z,17.06
2022-08-07T13:54:00.706Z,16.73
2022-08-07T13:56:35.564Z,16.53
2022-08-07T13:59:15.565Z,16.57
2022-08-07T14:02:03.635Z,16.55
2022-08-07T14:04:38.083Z,16.14
2022-08-07T14:07:23.011Z,16.37
2022-08-07T14:10:17.589Z,16.22
2022-08-07T14:12:55.691Z,16.64
2022-08-07T14:15:34.880Z,16.57
2022-08-07T14:18:27.583Z,16.35
2022-08-07T14:21:08.163Z,16.16
2022-08-07T14:24:00.776Z,16.48
2022-08-07T14:30:04.954Z,16.12
2022-08-07T14:32:31.213Z,16.01
2022-08-07T14:35:03.877Z,15.86
2022-08-07T14:37:38.994Z,15.48
2022-08-07T14:40:26.755Z,15.49
2022-08-07T14:43:58.939Z,15.69
2022-08-07T14:45:56.407Z,15.65
2022-08-07T14:48:28.884Z,15.52
2022-08-07T14:51:05.578Z,15.57
2022-08-07T14:56:30.617Z,15.59
2022-08-07T15:01:58.507Z,15.33
2022-08-07T15:04:29.000Z,14.98
2022-08-07T15:06:59.058Z,15.01
2022-08-07T15:12:30.304Z,14.92
2022-08-07T15:15:21.216Z,15.21
2022-08-07T15:18:02.680Z,15.47
2022-08-07T15:20:55.745Z,15.35
2022-08-07T15:25:02.452Z,15.36
2022-08-07T15:26:28.688Z,15.45
2022-08-07T15:30:08.643Z,15.41
2022-08-07T15:32:00.703Z,15.37
2022-08-07T15:34:37.600Z,15.43
2022-08-07T15:37:27.560Z,15.42
2022-08-07T15:40:01.115Z,15.58
2022-08-07T15:42:57.409Z,15.86
2022-08-07T15:48:30.906Z,16.12
2022-08-07T15:51:10.066Z,16.15
2022-08-07T15:53:52.647Z,15.90
2022-08-07T15:56:37.597Z,15.89
2022-08-07T15:59:16.372Z,15.79
2022-08-07T16:02:01.948Z,15.54
2022-08-07T16:04:35.967Z,15.41
2022-08-07T16:08:31.417Z,15.77
2022-08-07T16:10:14.219Z,15.43
2022-08-07T16:13:04.837Z,15.64
2022-08-07T16:15:57.463Z,15.60
2022-08-07T16:18:50.817Z,15.66
2022-08-07T16:22:02.278Z,15.59
2022-08-07T16:24:33.800Z,15.41
2022-08-07T16:27:18.734Z,15.54
2022-08-07T16:30:31.435Z,15.72
2022-08-07T16:34:02.135Z,15.58
2022-08-07T16:36:31.326Z,15.57
2022-08-07T16:39:40.512Z,15.55
2022-08-07T16:42:46.668Z,15.60
2022-08-07T16:46:47.063Z,15.48
2022-08-07T16:50:20.583Z,15.63
2022-08-07T16:52:50.676Z,15.58
2022-08-07T16:55:23.305Z,15.81
2022-08-07T16:58:04.246Z,15.91
2022-08-07T17:00:43.253Z,16.27
2022-08-07T17:03:58.365Z,15.99
2022-08-07T17:06:30.739Z,16.35
2022-08-07T17:10:05.129Z,16.16
2022-08-07T17:12:33.854Z,16.66
2022-08-07T17:15:08.717Z,16.56
2022-08-07T17:18:03.885Z,17.44
2022-08-07T17:20:35.458Z,17.57
2022-08-07T17:23:17.685Z,17.97
2022-08-07T17:26:02.723Z,18.41
2022-08-07T17:28:49.842Z,18.59
2022-08-07T17:31:25.964Z,18.70
2022-08-07T17:34:33.027Z,18.74
2022-08-07T17:37:09.830Z,19.04
2022-08-07T17:40:08.792Z,19.04
2022-08-07T17:42:58.116Z,19.34
2022-08-07T17:45:35.566Z,19.66
2022-08-07T17:48:10.347Z,19.92
2022-08-07T17:50:54.497Z,20.12
2022-08-07T17:54:00.119Z,20.49
2022-08-07T17:56:35.792Z,21.33
2022-08-07T17:59:17.155Z,21.34
2022-08-07T18:01:58.375Z,22.17
2022-08-07T18:04:37.749Z,22.18
2022-08-07T18:07:37.761Z,22.41
2022-08-07T18:10:32.227Z,23.22
2022-08-07T18:13:23.259Z,23.43
2022-08-07T18:16:08.196Z,23.62
2022-08-07T18:21:10.228Z,23.97
2022-08-07T18:21:58.352Z,24.33
2022-08-07T18:24:36.893Z,24.38
2022-08-07T18:27:25.898Z,24.47
2022-08-07T18:30:31.798Z,24.77
2022-08-07T18:33:55.170Z,25.03
2022-08-07T18:36:40.540Z,25.26
2022-08-07T18:40:07.792Z,25.48
2022-08-07T18:42:28.537Z,25.71
2022-08-07T18:45:44.124Z,25.86
2022-08-07T18:48:06.644Z,26.36
2022-08-07T18:51:00.726Z,26.49
2022-08-07T18:53:48.826Z,26.59
2022-08-07T18:56:39.173Z,26.74
2022-08-07T18:59:47.233Z,26.61
2022-08-07T19:02:36.325Z,26.98
2022-08-07T19:05:16.595Z,26.99
2022-08-07T19:08:03.984Z,27.17
2022-08-07T19:10:49.567Z,27.28
2022-08-07T19:13:27.527Z,27.57
2022-08-07T19:17:01.108Z,27.68
2022-08-07T19:19:03.570Z,27.91
2022-08-07T19:21:56.077Z,28.20
2022-08-07T19:24:44.469Z,28.26
2022-08-07T19:28:58.102Z,28.45
2022-08-07T19:31:05.965Z,28.77
2022-08-07T19:33:10.305Z,28.60
2022-08-07T19:35:43.504Z,29.25
2022-08-07T19:38:17.122Z,29.43
2022-08-07T19:40:51.543Z,29.37
2022-08-07T19:43:45.151Z,29.58
2022-08-07T19:46:15.921Z,29.92
2022-08-07T19:48:53.593Z,29.94
2022-08-07T19:51:51.701Z,30.10
2022-08-07T19:54:35.068Z,29.88
2022-08-07T19:58:03.205Z,30.33
2022-08-07T20:00:02.943Z,30.17
2022-08-07T20:02:51.971Z,30.40
2022-08-07T20:05:27.998Z,30.61
2022-08-07T20:08:01.895Z,30.63
2022-08-07T20:10:55.210Z,30.63
2022-08-07T20:13:35.334Z,30.40
2022-08-07T20:16:07.465Z,30.44
2022-08-07T20:18:47.321Z,30.97
2022-08-07T20:21:22.167Z,30.53
2022-08-07T20:24:00.226Z,30.70
2022-08-07T20:26:45.042Z,31.10
2022-08-07T20:29:48.031Z,30.91
2022-08-07T20:32:22.432Z,31.39
2022-08-07T20:34:56.138Z,31.33
2022-08-07T20:37:29.511Z,31.65
2022-08-07T20:40:05.011Z,31.69
2022-08-07T20:42:56.665Z,31.67
2022-08-07T20:46:24.985Z,31.79
2022-08-07T20:48:29.010Z,31.71
2022-08-07T20:51:01.509Z,32.01
2022-08-07T20:54:04.654Z,32.00
2022-08-07T20:56:26.112Z,32.06
2022-08-07T20:58:59.893Z,32.29
2022-08-07T21:01:45.994Z,32.31
2022-08-07T21:04:31.159Z,32.37
2022-08-07T21:07:04.404Z,32.55
2022-08-07T21:09:53.069Z,32.79
2022-08-07T21:12:32.871Z,32.65
2022-08-07T21:15:08.274Z,32.60
2022-08-07T21:18:03.626Z,32.81
2022-08-07T21:20:33.279Z,32.84
2022-08-07T21:23:08.998Z,32.70
2022-08-07T21:26:03.256Z,32.82
2022-08-07T21:28:48.281Z,32.94
2022-08-07T21:32:42.786Z,32.85
2022-08-07T21:34:32.642Z,33.08
2022-08-07T21:37:09.594Z,33.01
2022-08-07T21:39:54.934Z,33.07
2022-08-07T21:42:46.127Z,33.05
2022-08-07T21:46:07.895Z,33.20
2022-08-07T21:48:27.692Z,33.28
2022-08-07T21:51:19.561Z,33.34
2022-08-07T21:53:52.656Z,33.89
2022-08-07T21:56:39.634Z,33.95
2022-08-07T22:00:02.727Z,33.82
2022-08-07T22:02:32.794Z,34.08
2022-08-07T22:05:04.552Z,34.29
2022-08-07T22:07:58.807Z,34.36
2022-08-07T22:10:33.832Z,34.28
2022-08-07T22:13:09.269Z,34.54
2022-08-07T22:16:43.090Z,34.53
2022-08-07T22:18:43.165Z,34.52
2022-08-07T22:21:20.397Z,34.61
2022-08-07T22:23:58.325Z,34.75
2022-08-07T22:26:31.901Z,34.82
2022-08-07T22:29:13.814Z,34.85
2022-08-07T22:32:05.384Z,34.98
2022-08-07T22:34:53.207Z,34.94
2022-08-07T22:38:03.402Z,35.17
2022-08-07T22:40:37.062Z,35.22
2022-08-07T22:43:13.902Z,35.28
2022-08-07T22:46:43.033Z,35.33
2022-08-07T22:49:27.391Z,35.36
2022-08-07T22:52:19.524Z,35.55
2022-08-07T22:55:47.496Z,35.50
2022-08-07T22:59:24.987Z,35.55
2022-08-07T23:02:21.582Z,35.79
2022-08-07T23:06:14.667Z,35.76
2022-08-07T23:08:51.590Z,36.09
2022-08-07T23:11:46.957Z,35.87
2022-08-07T23:14:41.529Z,36.24
2022-08-07T23:17:33.824Z,36.17
2022-08-07T23:20:51.621Z,36.39
2022-08-07T23:24:16.957Z,36.32
2022-08-07T23:27:05.814Z,36.35
2022-08-07T23:30:36.063Z,36.51
2022-08-07T23:34:33.726Z,36.67
2022-08-07T23:36:28.839Z,36.67
2022-08-07T23:39:08.580Z,36.68
2022-08-07T23:42:04.693Z,37.00
2022-08-07T23:45:02.684Z,36.63
2022-08-07T23:47:48.080Z,36.89
2022-08-07T23:50:36.751Z,36.96
2022-08-07T23:53:50.942Z,37.36
2022-08-07T23:56:26.924Z,37.21
2022-08-07T23:59:10.533Z,37.26
